Time;durP1;ratioP1;P1;durP2;ratioP2;P2;SDS_P1;SDS_P2;PMS_P1;PMS_P2;Temp;Humidity;BMP_temperature;BMP_pressure;BME280_temperature;BME280_humidity;BME280_pressure;Samples;Min_cycle;Max_cycle;Signal;HPM_P1;HPM_P2
2020/12/15 00:01:22;;;;;;;20.98;12.05;;;4.10;99.90;;;;;;5028721;28;20104;-48
2020/12/15 00:03:49;;;;;;;19.30;11.85;;;4.00;99.90;;;;;;5027916;28;20064;-47
2020/12/15 00:06:15;;;;;;;23.67;12.13;;;4.00;99.90;;;;;;5028448;28;20029;-50
2020/12/15 00:08:41;;;;;;;17.50;11.02;;;4.00;99.90;;;;;;5027187;28;20072;-47
2020/12/15 00:11:06;;;;;;;17.83;10.55;;;4.00;99.90;;;;;;5028951;28;20440;-48
2020/12/15 00:13:32;;;;;;;16.77;10.15;;;4.00;99.90;;;;;;5033689;28;20109;-47
2020/12/15 00:15:57;;;;;;;18.50;10.52;;;4.00;99.90;;;;;;5030672;28;20519;-52
2020/12/15 00:18:23;;;;;;;21.48;13.13;;;4.00;99.90;;;;;;5030457;28;20033;-47
2020/12/15 00:20:48;;;;;;;17.92;11.30;;;4.00;99.90;;;;;;5030697;28;20033;-48
2020/12/15 00:23:14;;;;;;;15.60;9.68;;;4.00;99.90;;;;;;5029145;28;20523;-49
2020/12/15 00:25:40;;;;;;;21.42;13.20;;;4.00;99.90;;;;;;5030707;28;20029;-48
2020/12/15 00:28:06;;;;;;;19.25;12.00;;;4.00;99.90;;;;;;5031507;28;20044;-48
2020/12/15 00:30:31;;;;;;;18.88;11.30;;;3.90;99.90;;;;;;5029616;28;20413;-52
2020/12/15 00:32:57;;;;;;;21.95;12.82;;;4.00;99.90;;;;;;5030477;28;20034;-48
2020/12/15 00:35:22;;;;;;;21.08;12.85;;;4.00;99.90;;;;;;5032403;28;20041;-46
2020/12/15 00:37:48;;;;;;;20.55;12.18;;;4.00;99.90;;;;;;5032023;28;20467;-49
2020/12/15 00:40:13;;;;;;;17.55;11.02;;;4.00;99.90;;;;;;5031634;28;20025;-48
2020/12/15 00:42:39;;;;;;;23.13;14.52;;;4.00;99.90;;;;;;5030922;28;20041;-48
2020/12/15 00:45:05;;;;;;;16.63;10.38;;;4.00;99.90;;;;;;5038666;28;20045;-48
2020/12/15 00:47:30;;;;;;;23.98;14.10;;;4.00;99.90;;;;;;5031318;28;20033;-49
2020/12/15 00:49:56;;;;;;;20.25;11.70;;;4.00;99.90;;;;;;5032566;28;20089;-50
2020/12/15 00:52:25;;;;;;;17.35;10.95;;;4.00;99.90;;;;;;5032240;28;20033;-50
2020/12/15 00:54:51;;;;;;;19.48;12.18;;;4.00;99.90;;;;;;5030746;28;20033;-50
2020/12/15 00:57:17;;;;;;;23.02;14.05;;;4.00;99.90;;;;;;5030531;28;20098;-48
2020/12/15 00:59:43;;;;;;;24.25;13.40;;;4.00;99.90;;;;;;5031749;28;20029;-53
2020/12/15 01:02:09;;;;;;;17.98;11.85;;;4.10;99.90;;;;;;5032056;28;20076;-48
2020/12/15 01:04:34;;;;;;;20.92;11.27;;;4.20;99.90;;;;;;5032542;28;20483;-46
2020/12/15 01:07:00;;;;;;;21.98;14.60;;;4.20;99.90;;;;;;5031676;28;20099;-50
2020/12/15 01:09:25;;;;;;;20.00;13.18;;;4.20;99.90;;;;;;5032032;28;20108;-46
2020/12/15 01:11:51;;;;;;;22.63;13.35;;;4.30;99.90;;;;;;5030542;28;20052;-49
2020/12/15 01:14:16;;;;;;;24.05;15.38;;;4.30;99.90;;;;;;5028970;28;20048;-45
2020/12/15 01:16:42;;;;;;;19.10;11.43;;;4.30;99.90;;;;;;5031470;28;20544;-48
2020/12/15 01:19:07;;;;;;;18.35;11.52;;;4.30;99.90;;;;;;5031599;28;20045;-48
2020/12/15 01:21:33;;;;;;;16.92;10.88;;;4.30;99.90;;;;;;5031046;28;20040;-50
2020/12/15 01:23:59;;;;;;;16.70;10.05;;;4.30;99.90;;;;;;5029058;28;20099;-51
2020/12/15 01:26:24;;;;;;;13.25;8.88;;;4.30;99.90;;;;;;5030887;28;20048;-49
2020/12/15 01:28:50;;;;;;;18.85;10.98;;;4.30;99.90;;;;;;5030458;28;20480;-46
2020/12/15 01:31:24;;;;;;;21.00;11.98;;;4.30;99.90;;;;;;5031047;28;20495;-46
2020/12/15 01:33:50;;;;;;;16.05;9.60;;;4.20;99.90;;;;;;5030118;28;20021;-47
2020/12/15 01:36:15;;;;;;;19.00;12.88;;;4.20;99.90;;;;;;5030367;28;20116;-48
2020/12/15 01:38:41;;;;;;;15.18;9.20;;;4.20;99.90;;;;;;5030599;28;20465;-50
2020/12/15 01:41:07;;;;;;;17.73;11.95;;;4.20;99.90;;;;;;5029822;28;20044;-46
2020/12/15 01:43:32;;;;;;;15.70;9.85;;;4.20;99.90;;;;;;5029431;28;20045;-48
2020/12/15 01:45:58;;;;;;;16.48;10.40;;;4.20;99.90;;;;;;5028734;28;20071;-54
2020/12/15 01:48:23;;;;;;;20.83;12.55;;;4.20;99.90;;;;;;5029669;28;20057;-50
2020/12/15 01:50:49;;;;;;;21.40;10.95;;;4.10;99.90;;;;;;5027712;28;20026;-50
2020/12/15 01:53:15;;;;;;;18.70;10.30;;;4.20;99.90;;;;;;5033920;28;20392;-48
2020/12/15 01:55:41;;;;;;;14.65;8.93;;;4.10;99.90;;;;;;5031234;28;20831;-50
2020/12/15 01:58:08;;;;;;;21.08;12.68;;;4.10;99.90;;;;;;5030949;28;20112;-47
2020/12/15 02:00:33;;;;;;;16.88;11.07;;;4.10;99.90;;;;;;5031034;28;20108;-48
2020/12/15 02:02:59;;;;;;;17.10;10.82;;;4.10;99.90;;;;;;5032153;28;20092;-53
2020/12/15 02:05:24;;;;;;;17.63;10.88;;;4.10;99.90;;;;;;5031343;28;20474;-48
2020/12/15 02:07:50;;;;;;;18.42;11.05;;;4.10;99.90;;;;;;5031121;28;20032;-52
2020/12/15 02:10:17;;;;;;;18.33;10.50;;;4.10;99.90;;;;;;5030828;28;20081;-51
2020/12/15 02:12:43;;;;;;;13.57;8.18;;;4.00;99.90;;;;;;5030379;28;20109;-48
2020/12/15 02:15:08;;;;;;;18.35;10.45;;;4.00;99.90;;;;;;5030846;28;20036;-49
2020/12/15 02:17:34;;;;;;;19.90;12.90;;;4.00;99.90;;;;;;5031148;28;20022;-48
2020/12/15 02:20:10;;;;;;;17.60;11.00;;;3.90;99.90;;;;;;5031271;28;20025;-47
2020/12/15 02:22:36;;;;;;;19.02;12.25;;;3.90;99.90;;;;;;5028583;28;20079;-48
2020/12/15 02:25:06;;;;;;;18.25;10.93;;;3.90;99.90;;;;;;5028504;28;20634;-51
2020/12/15 02:27:31;;;;;;;16.75;9.95;;;3.90;99.90;;;;;;5029005;28;20032;-52
2020/12/15 02:29:57;;;;;;;22.35;12.40;;;3.90;99.90;;;;;;5030676;28;20037;-48
2020/12/15 02:32:22;;;;;;;19.40;11.73;;;3.90;99.90;;;;;;5030815;28;20485;-48
2020/12/15 02:34:54;;;;;;;20.63;11.77;;;3.90;99.90;;;;;;5029954;28;20047;-51
2020/12/15 02:37:19;;;;;;;22.63;13.65;;;3.90;99.90;;;;;;5029510;28;20091;-48
2020/12/15 02:39:45;;;;;;;19.60;11.70;;;3.90;99.90;;;;;;5030994;28;20017;-48
2020/12/15 02:42:10;;;;;;;22.13;13.07;;;4.00;99.90;;;;;;5035564;28;20040;-53
2020/12/15 02:44:36;;;;;;;28.58;16.88;;;4.00;99.90;;;;;;5030362;28;20067;-48
2020/12/15 02:47:01;;;;;;;22.67;13.38;;;4.00;99.90;;;;;;5030029;28;20021;-49
2020/12/15 02:49:27;;;;;;;18.83;11.48;;;4.00;99.90;;;;;;5030038;28;20041;-49
2020/12/15 02:51:54;;;;;;;23.15;15.07;;;4.00;99.90;;;;;;5029865;28;20029;-50
2020/12/15 02:54:19;;;;;;;22.05;12.50;;;4.00;99.90;;;;;;5028238;28;20086;-49
2020/12/15 02:56:45;;;;;;;25.98;16.80;;;4.00;99.90;;;;;;5028791;28;20037;-50
2020/12/15 02:59:10;;;;;;;22.20;14.27;;;4.00;99.90;;;;;;5029649;28;20388;-49
2020/12/15 03:01:48;;;;;;;29.38;16.65;;;4.00;99.90;;;;;;5029785;28;20059;-51
2020/12/15 03:04:13;;;;;;;24.02;13.40;;;4.00;99.90;;;;;;5027403;28;20030;-47
2020/12/15 03:06:39;;;;;;;24.63;15.50;;;4.00;99.90;;;;;;5028681;28;20499;-49
2020/12/15 03:09:09;;;;;;;24.73;13.18;;;4.00;99.90;;;;;;5029103;28;20530;-48
2020/12/15 03:11:35;;;;;;;24.45;14.85;;;3.90;99.90;;;;;;5027955;28;20029;-48
2020/12/15 03:14:02;;;;;;;17.65;10.77;;;3.90;99.90;;;;;;5028312;28;20025;-48
2020/12/15 03:16:28;;;;;;;22.67;13.52;;;3.80;99.90;;;;;;5028171;28;20132;-49
2020/12/15 03:18:53;;;;;;;19.85;12.65;;;3.80;99.90;;;;;;5023322;28;20022;-49
2020/12/15 03:21:20;;;;;;;25.13;15.05;;;3.80;99.90;;;;;;5027547;28;20503;-48
2020/12/15 03:23:47;;;;;;;21.88;12.50;;;3.70;99.90;;;;;;5028809;28;20372;-48
2020/12/15 03:26:12;;;;;;;27.17;15.05;;;3.80;99.90;;;;;;5030321;28;20037;-47
2020/12/15 03:28:38;;;;;;;28.80;16.15;;;3.70;99.90;;;;;;5029734;28;20480;-48
2020/12/15 03:31:03;;;;;;;27.02;17.13;;;3.70;99.90;;;;;;5029809;28;20036;-46
2020/12/15 03:33:28;;;;;;;23.13;12.20;;;3.80;99.90;;;;;;5026671;28;20045;-50
2020/12/15 03:35:54;;;;;;;23.63;13.82;;;3.70;99.90;;;;;;5029964;28;20029;-48
2020/12/15 03:38:20;;;;;;;27.40;17.05;;;3.70;99.90;;;;;;5030116;28;20026;-50
2020/12/15 03:40:45;;;;;;;22.73;13.25;;;3.70;99.90;;;;;;5030213;28;20036;-47
2020/12/15 03:46:34;;;;;;;24.60;14.57;;;3.80;99.90;;;;;;5027449;28;20033;-48
2020/12/15 04:05:49;;;;;;;27.50;15.18;;;3.70;99.90;;;;;;5026515;28;20021;-48
2020/12/15 04:08:15;;;;;;;36.38;19.90;;;3.70;99.90;;;;;;5019452;28;20488;-48
2020/12/15 04:10:40;;;;;;;35.38;19.50;;;3.70;99.90;;;;;;5016884;28;20022;-47
2020/12/15 04:13:06;;;;;;;34.45;21.25;;;3.80;99.90;;;;;;5017837;28;20061;-48
2020/12/15 04:15:31;;;;;;;33.05;18.70;;;3.80;99.90;;;;;;5024099;28;20029;-50
2020/12/15 04:18:34;;;;;;;34.13;21.65;;;3.80;99.90;;;;;;5027871;28;20029;-46
2020/12/15 04:20:59;;;;;;;36.35;20.67;;;3.80;99.90;;;;;;5023413;28;20072;-47
2020/12/15 04:30:08;;;;;;;27.58;16.00;;;3.80;99.90;;;;;;5027641;28;20112;-49
2020/12/15 04:32:34;;;;;;;30.80;16.92;;;3.70;99.90;;;;;;5038936;28;20112;-46
2020/12/15 04:35:33;;;;;;;29.95;15.73;;;3.70;99.90;;;;;;5027386;28;20092;-50
2020/12/15 04:48:23;;;;;;;27.75;15.88;;;3.50;99.90;;;;;;5021380;28;20076;-49
2020/12/15 04:50:52;;;;;;;32.03;16.45;;;3.50;99.90;;;;;;5019919;28;20041;-48
2020/12/15 04:53:23;;;;;;;31.63;18.15;;;3.50;99.90;;;;;;5028890;28;20037;-51
2020/12/15 04:55:50;;;;;;;35.30;20.45;;;3.40;99.90;;;;;;5047553;28;20041;-51
2020/12/15 04:58:20;;;;;;;26.65;15.10;;;3.40;99.90;;;;;;5024351;28;20509;-53
2020/12/15 05:00:46;;;;;;;35.72;20.27;;;3.40;99.90;;;;;;5028758;28;20041;-48
2020/12/15 05:03:17;;;;;;;35.60;21.23;;;3.30;99.90;;;;;;5029767;28;20443;-50
2020/12/15 05:05:44;;;;;;;27.95;16.48;;;3.30;99.90;;;;;;5027372;28;20025;-46
2020/12/15 05:08:14;;;;;;;29.05;16.30;;;3.30;99.90;;;;;;5018887;28;20148;-48
2020/12/15 05:10:40;;;;;;;27.85;16.15;;;3.30;99.90;;;;;;5020341;28;20029;-46
2020/12/15 05:13:05;;;;;;;29.48;17.48;;;3.30;99.90;;;;;;5021321;28;20038;-47
2020/12/15 05:15:32;;;;;;;32.83;18.88;;;3.30;99.90;;;;;;5024680;28;20112;-46
2020/12/15 05:18:02;;;;;;;31.60;16.17;;;3.40;99.90;;;;;;5025734;28;20044;-50
2020/12/15 05:20:31;;;;;;;29.73;17.80;;;3.40;99.90;;;;;;5020005;28;20115;-48
2020/12/15 05:22:57;;;;;;;35.55;15.90;;;3.40;99.90;;;;;;5020485;28;20148;-49
2020/12/15 05:25:34;;;;;;;24.27;13.43;;;3.30;99.90;;;;;;5025294;28;20495;-48
2020/12/15 05:28:08;;;;;;;25.80;14.82;;;3.30;99.90;;;;;;5022258;28;20315;-46
2020/12/15 05:30:34;;;;;;;26.42;14.77;;;3.30;99.90;;;;;;5021269;28;20036;-48
2020/12/15 05:32:59;;;;;;;26.67;15.73;;;3.30;99.90;;;;;;5027514;28;20038;-48
2020/12/15 05:35:28;;;;;;;27.20;13.65;;;3.20;99.90;;;;;;5024515;28;20037;-48
2020/12/15 05:37:55;;;;;;;26.65;13.55;;;3.20;99.90;;;;;;5022302;28;20502;-51
2020/12/15 05:40:21;;;;;;;25.02;14.23;;;3.10;99.90;;;;;;5025967;28;20056;-49
2020/12/15 05:43:00;;;;;;;25.67;14.73;;;3.00;99.90;;;;;;5021778;28;20570;-48
2020/12/15 05:45:31;;;;;;;29.00;14.73;;;3.00;99.90;;;;;;5029921;28;20028;-48
2020/12/15 05:48:01;;;;;;;26.20;14.98;;;2.90;99.90;;;;;;5021662;28;20033;-50
2020/12/15 05:50:27;;;;;;;28.95;16.35;;;2.90;99.90;;;;;;5020385;28;20028;-50
2020/12/15 05:53:00;;;;;;;29.08;16.08;;;2.80;99.90;;;;;;5014436;28;20025;-46
2020/12/15 05:55:26;;;;;;;27.38;15.52;;;2.80;99.90;;;;;;5020588;28;20022;-52
2020/12/15 05:57:52;;;;;;;28.13;15.45;;;2.80;99.90;;;;;;5018392;28;20026;-47
2020/12/15 06:00:18;;;;;;;23.23;13.40;;;2.70;99.90;;;;;;5018367;28;20412;-49
2020/12/15 06:02:44;;;;;;;28.73;14.55;;;2.70;99.90;;;;;;5019423;28;20033;-49
2020/12/15 06:05:10;;;;;;;32.63;17.50;;;2.70;99.90;;;;;;5018990;28;20043;-48
2020/12/15 06:07:35;;;;;;;28.83;15.52;;;2.70;99.90;;;;;;5021697;28;20101;-50
2020/12/15 06:10:03;;;;;;;23.38;13.30;;;2.80;99.90;;;;;;5021213;28;20033;-50
2020/12/15 06:12:29;;;;;;;29.23;15.73;;;2.80;99.90;;;;;;5015401;28;20029;-48
2020/12/15 06:14:54;;;;;;;23.73;13.52;;;2.90;99.90;;;;;;5017835;28;20547;-47
2020/12/15 06:17:21;;;;;;;24.35;14.02;;;2.90;99.90;;;;;;5020013;28;20171;-47
2020/12/15 06:19:52;;;;;;;32.10;17.25;;;2.90;99.90;;;;;;5016395;28;20033;-48
2020/12/15 06:22:22;;;;;;;27.83;15.65;;;3.00;99.90;;;;;;5024151;28;20025;-49
2020/12/15 06:24:59;;;;;;;34.80;19.35;;;3.10;99.90;;;;;;5040686;28;20025;-48
2020/12/15 06:27:43;;;;;;;37.03;18.38;;;3.20;99.90;;;;;;5022030;28;20025;-52
2020/12/15 06:30:08;;;;;;;35.47;19.98;;;3.30;99.90;;;;;;5021931;28;20025;-47
2020/12/15 06:32:34;;;;;;;33.47;17.60;;;3.30;99.90;;;;;;5033018;28;20029;-46
2020/12/15 06:35:06;;;;;;;31.80;16.45;;;3.40;99.90;;;;;;5021934;28;20508;-49
2020/12/15 06:37:36;;;;;;;29.48;17.30;;;3.40;99.90;;;;;;5024438;28;20060;-52
2020/12/15 06:40:04;;;;;;;29.73;16.90;;;3.40;99.90;;;;;;5028607;28;20044;-53
2020/12/15 06:42:30;;;;;;;35.95;19.48;;;3.50;99.90;;;;;;5028322;28;20519;-49
2020/12/15 06:45:11;;;;;;;31.00;16.50;;;3.50;99.90;;;;;;5027968;28;20021;-49
2020/12/15 06:47:37;;;;;;;32.03;16.70;;;3.50;99.90;;;;;;5019878;28;20051;-53
2020/12/15 06:50:16;;;;;;;28.70;15.52;;;3.50;99.90;;;;;;5019445;28;20083;-51
2020/12/15 06:52:42;;;;;;;27.52;16.27;;;3.60;99.90;;;;;;5015951;28;20033;-51
2020/12/15 06:55:08;;;;;;;27.85;15.82;;;3.60;99.90;;;;;;5033889;28;20447;-51
2020/12/15 06:57:35;;;;;;;30.83;17.17;;;3.60;99.90;;;;;;5020798;28;20033;-50
2020/12/15 07:00:05;;;;;;;30.63;17.65;;;3.60;99.90;;;;;;5026887;28;20033;-51
2020/12/15 07:02:32;;;;;;;29.30;17.00;;;3.60;99.90;;;;;;5022970;28;20140;-50
2020/12/15 07:05:25;;;;;;;27.60;15.18;;;3.60;99.90;;;;;;5018768;28;20030;-48
2020/12/15 07:07:53;;;;;;;34.00;18.38;;;3.60;99.90;;;;;;5024239;28;20036;-52
2020/12/15 07:10:22;;;;;;;26.35;15.57;;;3.60;99.90;;;;;;5024645;28;20457;-54
2020/12/15 07:12:49;;;;;;;29.88;16.98;;;3.60;99.90;;;;;;5030894;28;20025;-54
2020/12/15 07:15:17;;;;;;;25.88;15.27;;;3.70;99.90;;;;;;5023703;28;20045;-55
2020/12/15 07:17:48;;;;;;;26.25;15.52;;;3.60;99.90;;;;;;5020024;28;20034;-54
2020/12/15 07:20:14;;;;;;;29.88;16.80;;;3.70;99.90;;;;;;5021189;28;20025;-52
2020/12/15 07:22:40;;;;;;;29.77;16.63;;;3.70;99.90;;;;;;5019772;28;20018;-51
2020/12/15 07:25:06;;;;;;;29.67;16.88;;;3.60;99.90;;;;;;5024501;28;20504;-52
2020/12/15 07:27:33;;;;;;;32.35;17.35;;;3.70;99.90;;;;;;5017270;28;20099;-52
2020/12/15 07:30:00;;;;;;;27.23;15.15;;;3.70;99.90;;;;;;5020697;28;20076;-49
2020/12/15 07:32:27;;;;;;;34.70;19.40;;;3.70;99.90;;;;;;5018251;28;20117;-52
2020/12/15 07:35:04;;;;;;;28.40;14.98;;;3.70;99.90;;;;;;5020970;28;20030;-53
2020/12/15 07:37:29;;;;;;;32.75;19.17;;;3.70;99.90;;;;;;5016636;28;20037;-52
2020/12/15 07:40:02;;;;;;;27.73;17.15;;;3.70;99.90;;;;;;5017575;28;20029;-52
2020/12/15 07:42:27;;;;;;;28.70;17.17;;;3.80;99.90;;;;;;5017759;28;20084;-49
2020/12/15 07:44:57;;;;;;;29.50;17.50;;;3.80;99.90;;;;;;5018598;28;20034;-53
2020/12/15 07:47:25;;;;;;;32.55;16.75;;;3.80;99.90;;;;;;5018232;28;20042;-51
2020/12/15 07:49:53;;;;;;;30.38;17.52;;;3.80;99.90;;;;;;5022156;28;20021;-52
2020/12/15 07:52:48;;;;;;;30.42;17.63;;;3.90;99.90;;;;;;5025825;28;20038;-55
2020/12/15 07:55:15;;;;;;;30.95;15.95;;;3.80;99.90;;;;;;5021680;28;20117;-50
2020/12/15 07:57:42;;;;;;;33.33;18.77;;;3.90;99.90;;;;;;5025419;28;20622;-50
2020/12/15 08:00:20;;;;;;;32.42;17.52;;;3.90;99.90;;;;;;5027581;28;20025;-50
2020/12/15 08:02:45;;;;;;;30.23;18.92;;;4.00;99.90;;;;;;5029965;28;20157;-54
2020/12/15 08:05:15;;;;;;;28.13;18.08;;;4.10;99.90;;;;;;5023262;28;20056;-46
2020/12/15 08:07:51;;;;;;;35.03;20.20;;;4.10;99.90;;;;;;5025553;28;20484;-49
2020/12/15 08:10:23;;;;;;;34.65;19.75;;;4.10;99.90;;;;;;5026287;28;20158;-50
2020/12/15 08:12:50;;;;;;;30.48;18.35;;;4.20;99.90;;;;;;5018370;28;20029;-48
2020/12/15 08:15:16;;;;;;;33.42;19.33;;;4.20;99.90;;;;;;5023758;28;20052;-50
2020/12/15 08:17:45;;;;;;;24.60;15.85;;;4.20;99.90;;;;;;5035418;28;20507;-53
2020/12/15 08:20:14;;;;;;;38.13;20.63;;;4.20;99.90;;;;;;5022320;28;20026;-51
2020/12/15 08:22:42;;;;;;;27.42;17.33;;;4.30;99.90;;;;;;5021373;28;20025;-48
2020/12/15 08:25:10;;;;;;;33.38;18.17;;;4.30;99.90;;;;;;5046381;28;20056;-48
2020/12/15 08:27:36;;;;;;;29.83;16.40;;;4.40;99.90;;;;;;5024826;28;20633;-48
2020/12/15 08:30:16;;;;;;;26.15;16.35;;;4.40;99.90;;;;;;5030924;28;20152;-48
2020/12/15 08:32:48;;;;;;;33.33;19.95;;;4.50;99.90;;;;;;5044789;28;20026;-49
2020/12/15 08:35:21;;;;;;;29.50;18.88;;;4.50;99.90;;;;;;5027809;28;20411;-52
2020/12/15 08:37:53;;;;;;;32.28;18.83;;;4.50;99.90;;;;;;5032281;28;20211;-47
2020/12/15 08:40:19;;;;;;;31.65;20.75;;;4.50;99.90;;;;;;5032566;28;20033;-53
2020/12/15 08:42:46;;;;;;;29.08;17.88;;;4.60;99.90;;;;;;5029768;28;20084;-47
2020/12/15 08:45:16;;;;;;;31.33;17.60;;;4.60;99.90;;;;;;5034123;28;20083;-48
2020/12/15 08:47:48;;;;;;;33.78;18.45;;;4.60;99.90;;;;;;5034255;28;20037;-47
2020/12/15 08:50:15;;;;;;;31.50;18.15;;;4.70;99.90;;;;;;5031538;28;20034;-51
2020/12/15 08:52:42;;;;;;;28.73;17.10;;;4.70;99.90;;;;;;5029913;28;20064;-51
2020/12/15 08:55:08;;;;;;;31.50;18.08;;;4.70;99.90;;;;;;5030919;28;20534;-51
2020/12/15 08:57:34;;;;;;;26.98;16.25;;;4.80;99.90;;;;;;5030278;28;20476;-50
2020/12/15 09:00:14;;;;;;;32.95;20.67;;;4.80;99.90;;;;;;5032837;28;20025;-49
2020/12/15 09:02:41;;;;;;;26.95;16.98;;;4.80;99.90;;;;;;5026443;28;20487;-49
2020/12/15 09:05:08;;;;;;;28.23;17.98;;;4.90;99.90;;;;;;5029700;28;20492;-51
2020/12/15 09:07:34;;;;;;;28.83;16.17;;;4.90;99.90;;;;;;5028974;28;20385;-51
2020/12/15 09:10:16;;;;;;;30.88;18.50;;;5.00;99.90;;;;;;5029363;28;20116;-52
2020/12/15 09:12:47;;;;;;;30.70;18.20;;;5.00;99.90;;;;;;5027789;28;20103;-48
2020/12/15 09:15:14;;;;;;;25.95;16.70;;;5.10;99.90;;;;;;5026150;28;20044;-47
2020/12/15 09:17:40;;;;;;;35.42;20.92;;;5.10;99.90;;;;;;5027982;28;20030;-53
2020/12/15 09:20:08;;;;;;;31.40;18.10;;;5.20;99.90;;;;;;5030525;28;20410;-48
2020/12/15 09:22:37;;;;;;;29.30;18.75;;;5.30;99.90;;;;;;5034488;28;20543;-47
2020/12/15 09:25:12;;;;;;;35.50;21.40;;;5.30;99.90;;;;;;5035603;28;20026;-46
2020/12/15 09:27:38;;;;;;;27.83;16.13;;;5.40;99.90;;;;;;5030359;28;20488;-54
2020/12/15 09:30:04;;;;;;;24.98;15.43;;;5.50;99.90;;;;;;5038831;28;20046;-48
2020/12/15 09:32:31;;;;;;;23.02;14.30;;;5.50;99.90;;;;;;5030342;28;20095;-53
2020/12/15 09:34:57;;;;;;;31.33;19.75;;;5.60;99.90;;;;;;5032111;28;20029;-49
2020/12/15 09:37:22;;;;;;;29.40;19.60;;;5.70;99.90;;;;;;5031391;28;20033;-49
2020/12/15 09:39:48;;;;;;;30.42;18.77;;;5.80;99.90;;;;;;5030791;28;20032;-51
2020/12/15 09:42:14;;;;;;;30.40;18.13;;;5.90;99.90;;;;;;5029361;28;20120;-52
2020/12/15 09:44:39;;;;;;;25.95;16.13;;;5.90;99.90;;;;;;5031293;28;20032;-48
2020/12/15 09:47:04;;;;;;;32.65;18.70;;;6.00;99.90;;;;;;5031026;28;20504;-49
2020/12/15 09:49:30;;;;;;;28.65;17.58;;;6.10;99.90;;;;;;5029275;28;20032;-50
2020/12/15 09:51:56;;;;;;;25.77;16.15;;;6.10;99.90;;;;;;5028894;28;20593;-48
2020/12/15 09:54:21;;;;;;;29.17;17.50;;;6.20;99.90;;;;;;5034848;28;20052;-50
2020/12/15 09:56:47;;;;;;;29.70;18.58;;;6.20;99.90;;;;;;5028585;28;20460;-51
2020/12/15 09:59:14;;;;;;;25.50;16.17;;;6.20;99.90;;;;;;5029069;28;20104;-49
2020/12/15 10:01:40;;;;;;;27.35;16.35;;;6.20;99.90;;;;;;5029510;28;20025;-48
2020/12/15 10:04:06;;;;;;;30.15;18.88;;;6.30;99.90;;;;;;5026396;28;20116;-49
2020/12/15 10:06:32;;;;;;;28.50;17.42;;;6.30;99.90;;;;;;5024982;28;20106;-49
2020/12/15 10:08:57;;;;;;;24.70;15.65;;;6.30;99.90;;;;;;5026316;28;20041;-49
2020/12/15 10:11:25;;;;;;;29.13;17.95;;;6.30;99.90;;;;;;5028673;28;20030;-49
2020/12/15 10:13:50;;;;;;;29.58;18.15;;;6.30;99.90;;;;;;5025473;28;20066;-53
2020/12/15 10:16:16;;;;;;;24.10;14.95;;;6.40;99.90;;;;;;5031206;28;20418;-50
2020/12/15 10:18:41;;;;;;;29.65;17.75;;;6.40;99.90;;;;;;5028503;28;20448;-49
2020/12/15 10:21:07;;;;;;;25.83;15.20;;;6.40;99.90;;;;;;5028874;28;20501;-53
2020/12/15 10:23:34;;;;;;;26.13;17.42;;;6.50;99.90;;;;;;5029221;28;20036;-50
2020/12/15 10:26:01;;;;;;;24.90;16.63;;;6.50;99.90;;;;;;5025617;28;20059;-49
2020/12/15 10:28:26;;;;;;;25.90;15.13;;;6.50;99.90;;;;;;5024480;28;20061;-50
2020/12/15 10:30:52;;;;;;;27.85;17.77;;;6.60;99.90;;;;;;5028754;28;20104;-52
2020/12/15 10:33:17;;;;;;;27.77;16.30;;;6.60;99.90;;;;;;5025178;28;20458;-52
2020/12/15 10:35:43;;;;;;;23.05;15.25;;;6.70;99.70;;;;;;5028681;28;20033;-50
2020/12/15 10:38:08;;;;;;;24.45;16.15;;;6.70;99.90;;;;;;5027513;28;20116;-52
2020/12/15 10:40:33;;;;;;;26.63;16.35;;;6.70;99.90;;;;;;5028770;28;20424;-47
2020/12/15 10:42:59;;;;;;;22.63;14.13;;;6.80;99.90;;;;;;5027023;28;20029;-49
2020/12/15 10:45:24;;;;;;;29.88;19.35;;;6.90;99.90;;;;;;5025945;28;20026;-51
2020/12/15 10:47:50;;;;;;;26.42;16.20;;;6.90;99.90;;;;;;5027181;28;20045;-50
2020/12/15 10:50:17;;;;;;;28.48;17.30;;;6.90;99.80;;;;;;5029335;28;20400;-50
2020/12/15 10:52:42;;;;;;;26.10;16.20;;;6.90;99.30;;;;;;5028761;28;20037;-53
2020/12/15 10:55:08;;;;;;;21.65;13.25;;;6.90;98.90;;;;;;5026353;28;20545;-49
2020/12/15 10:57:36;;;;;;;30.38;19.08;;;6.80;99.20;;;;;;5028168;28;20037;-48
2020/12/15 11:00:05;;;;;;;27.65;17.02;;;6.90;97.80;;;;;;5025012;28;20040;-51
2020/12/15 11:02:31;;;;;;;21.85;13.82;;;6.80;97.10;;;;;;5024114;28;20025;-49
2020/12/15 11:04:56;;;;;;;29.60;17.17;;;6.80;97.80;;;;;;5027300;28;20025;-49
2020/12/15 11:07:22;;;;;;;25.33;15.77;;;6.80;97.60;;;;;;5024296;28;20128;-47
2020/12/15 11:09:47;;;;;;;27.25;15.48;;;6.80;98.10;;;;;;5028235;28;20033;-53
2020/12/15 11:12:13;;;;;;;26.30;15.90;;;6.70;98.60;;;;;;5030797;28;20047;-52
2020/12/15 11:14:38;;;;;;;26.77;16.77;;;6.70;98.50;;;;;;5030404;28;20029;-54
2020/12/15 11:17:04;;;;;;;22.63;13.63;;;6.80;97.90;;;;;;5027076;28;21010;-48
2020/12/15 11:19:29;;;;;;;21.95;12.82;;;6.70;98.20;;;;;;5028626;28;20448;-47
2020/12/15 11:21:55;;;;;;;20.13;13.38;;;6.70;98.50;;;;;;5024703;28;20029;-50
2020/12/15 11:24:21;;;;;;;23.38;14.50;;;6.70;99.30;;;;;;5027298;28;20029;-52
2020/12/15 11:26:51;;;;;;;20.10;13.32;;;6.70;99.40;;;;;;5029506;28;20083;-53
2020/12/15 11:29:17;;;;;;;20.55;11.98;;;6.70;99.50;;;;;;5030092;28;20026;-55
2020/12/15 11:31:42;;;;;;;26.98;14.50;;;6.70;99.50;;;;;;5032094;28;20034;-51
2020/12/15 11:34:09;;;;;;;23.98;15.60;;;6.70;98.40;;;;;;5033029;28;20431;-50
2020/12/15 11:36:35;;;;;;;21.27;14.15;;;6.70;98.40;;;;;;5026714;28;20075;-52
2020/12/15 11:39:03;;;;;;;24.77;15.30;;;6.70;98.40;;;;;;5032553;28;20026;-47
2020/12/15 11:41:29;;;;;;;26.90;14.65;;;6.70;98.10;;;;;;5030215;28;20096;-50
2020/12/15 11:43:56;;;;;;;22.00;14.00;;;6.70;98.30;;;;;;5030801;28;20104;-50
2020/12/15 11:46:22;;;;;;;24.75;15.10;;;6.80;98.40;;;;;;5027340;28;20038;-48
2020/12/15 11:48:47;;;;;;;23.25;14.43;;;6.80;98.80;;;;;;5027449;28;20052;-55
2020/12/15 11:51:20;;;;;;;22.92;14.55;;;6.80;98.40;;;;;;5032578;28;20377;-52
2020/12/15 11:53:47;;;;;;;28.70;16.77;;;6.90;98.30;;;;;;5030398;28;20022;-51
2020/12/15 11:56:18;;;;;;;20.40;12.90;;;6.90;97.80;;;;;;5027768;28;20037;-52
2020/12/15 11:58:44;;;;;;;24.73;14.95;;;7.00;97.90;;;;;;5031871;28;20597;-50
2020/12/15 12:01:10;;;;;;;23.42;14.70;;;7.00;97.30;;;;;;5031560;28;20039;-51
2020/12/15 12:03:35;;;;;;;22.10;13.93;;;7.00;97.40;;;;;;5030931;28;20489;-52
2020/12/15 12:06:01;;;;;;;24.38;16.38;;;7.00;97.50;;;;;;5032327;28;20147;-52
2020/12/15 12:08:29;;;;;;;21.83;14.18;;;7.10;96.90;;;;;;5031897;28;20033;-53
2020/12/15 12:10:55;;;;;;;26.15;16.30;;;7.10;96.80;;;;;;5031126;28;20029;-49
2020/12/15 12:13:21;;;;;;;21.58;14.07;;;7.10;97.00;;;;;;5029646;28;20091;-50
2020/12/15 12:15:46;;;;;;;24.92;14.93;;;7.20;96.60;;;;;;5029790;28;20116;-50
2020/12/15 12:18:12;;;;;;;26.63;16.80;;;7.20;96.70;;;;;;5029835;28;20037;-53
2020/12/15 12:20:37;;;;;;;23.27;13.88;;;7.30;96.40;;;;;;5039581;28;20100;-53
2020/12/15 12:23:04;;;;;;;21.38;12.75;;;7.30;96.20;;;;;;5032348;28;20025;-47
2020/12/15 12:25:29;;;;;;;21.27;12.90;;;7.30;96.60;;;;;;5034396;28;20025;-49
2020/12/15 12:27:55;;;;;;;20.00;12.05;;;7.30;96.20;;;;;;5026375;28;20483;-50
2020/12/15 12:30:21;;;;;;;17.45;11.18;;;7.40;96.60;;;;;;5029441;28;20517;-50
2020/12/15 12:32:47;;;;;;;19.08;11.73;;;7.50;97.00;;;;;;5032614;28;20095;-49
2020/12/15 12:35:12;;;;;;;23.30;13.98;;;7.60;96.80;;;;;;5030209;28;20108;-48
2020/12/15 12:37:38;;;;;;;20.08;12.88;;;7.70;95.80;;;;;;5029147;28;20033;-52
2020/12/15 12:40:05;;;;;;;27.95;15.98;;;7.70;95.60;;;;;;5030587;28;20053;-51
2020/12/15 12:42:30;;;;;;;24.15;16.05;;;7.70;95.20;;;;;;5032083;28;20025;-51
2020/12/15 12:44:56;;;;;;;23.90;13.68;;;7.70;94.70;;;;;;5027322;28;20033;-53
2020/12/15 12:47:21;;;;;;;22.48;13.90;;;7.60;94.70;;;;;;5030822;28;20582;-48
2020/12/15 12:49:47;;;;;;;18.85;11.15;;;7.60;95.30;;;;;;5030853;28;20039;-50
2020/12/15 12:52:12;;;;;;;16.45;9.65;;;7.60;95.10;;;;;;5028079;28;20396;-54
2020/12/15 12:54:38;;;;;;;16.85;10.75;;;7.60;95.60;;;;;;5031401;28;20107;-48
2020/12/15 12:57:03;;;;;;;24.40;14.07;;;7.50;96.00;;;;;;5028154;28;20033;-49
2020/12/15 12:59:29;;;;;;;21.45;13.35;;;7.50;96.10;;;;;;5036616;28;20021;-52
2020/12/15 13:01:59;;;;;;;28.23;17.00;;;7.50;95.30;;;;;;5030563;28;20074;-53
2020/12/15 13:04:24;;;;;;;23.77;14.73;;;7.40;94.40;;;;;;5029980;28;20108;-48
2020/12/15 13:06:50;;;;;;;23.67;14.63;;;7.40;94.80;;;;;;5030327;28;20213;-47
2020/12/15 13:09:15;;;;;;;25.08;15.23;;;7.30;95.10;;;;;;5030600;28;20033;-48
2020/12/15 13:11:41;;;;;;;21.67;13.85;;;7.20;95.20;;;;;;5029898;28;20545;-50
2020/12/15 13:14:06;;;;;;;24.55;15.52;;;7.20;95.30;;;;;;5030386;28;20033;-51
2020/12/15 13:16:32;;;;;;;24.20;14.73;;;7.20;95.30;;;;;;5029942;28;20032;-49